sensor_id;sensor_type;location;lat;lon;timestamp;P1;durP1;ratioP1;P2;durP2;ratioP2
18084;SDS011;9169;44.492;11.372;2023-03-11T00:01:08;13.57;;;3.83;;
18084;SDS011;9169;44.492;11.372;2023-03-11T00:03:37;13.07;;;4.20;;
18084;SDS011;9169;44.492;11.372;2023-03-11T00:06:05;15.63;;;3.20;;
18084;SDS011;9169;44.492;11.372;2023-03-11T00:08:34;13.63;;;4.27;;
18084;SDS011;9169;44.492;11.372;2023-03-11T00:11:04;11.37;;;3.73;;
18084;SDS011;9169;44.492;11.372;2023-03-11T00:13:32;15.30;;;4.17;;
18084;SDS011;9169;44.492;11.372;2023-03-11T00:16:02;18.17;;;4.20;;
18084;SDS011;9169;44.492;11.372;2023-03-11T00:18:31;10.70;;;3.67;;
18084;SDS011;9169;44.492;11.372;2023-03-11T00:21:00;11.93;;;3.90;;
18084;SDS011;9169;44.492;11.372;2023-03-11T00:23:32;16.40;;;5.13;;
18084;SDS011;9169;44.492;11.372;2023-03-11T00:26:01;13.33;;;4.10;;
18084;SDS011;9169;44.492;11.372;2023-03-11T00:28:31;16.00;;;4.20;;
18084;SDS011;9169;44.492;11.372;2023-03-11T00:31:00;13.30;;;4.20;;
18084;SDS011;9169;44.492;11.372;2023-03-11T00:33:29;12.97;;;4.40;;
18084;SDS011;9169;44.492;11.372;2023-03-11T00:35:58;14.60;;;4.60;;
18084;SDS011;9169;44.492;11.372;2023-03-11T00:38:26;17.27;;;4.50;;
18084;SDS011;9169;44.492;11.372;2023-03-11T00:40:55;9.80;;;2.77;;
18084;SDS011;9169;44.492;11.372;2023-03-11T00:43:31;14.40;;;4.50;;
18084;SDS011;9169;44.492;11.372;2023-03-11T00:46:00;19.33;;;4.57;;
18084;SDS011;9169;44.492;11.372;2023-03-11T00:48:30;15.43;;;4.43;;
18084;SDS011;9169;44.492;11.372;2023-03-11T00:50:59;16.87;;;4.20;;
18084;SDS011;9169;44.492;11.372;2023-03-11T00:53:27;14.13;;;3.60;;
18084;SDS011;9169;44.492;11.372;2023-03-11T00:55:56;12.63;;;3.80;;
18084;SDS011;9169;44.492;11.372;2023-03-11T00:58:25;11.67;;;3.77;;
18084;SDS011;9169;44.492;11.372;2023-03-11T01:00:57;12.83;;;4.13;;
18084;SDS011;9169;44.492;11.372;2023-03-11T01:03:25;12.77;;;3.63;;
18084;SDS011;9169;44.492;11.372;2023-03-11T01:05:54;9.43;;;3.63;;
18084;SDS011;9169;44.492;11.372;2023-03-11T01:08:23;17.10;;;4.13;;
18084;SDS011;9169;44.492;11.372;2023-03-11T01:10:53;10.93;;;3.80;;
18084;SDS011;9169;44.492;11.372;2023-03-11T01:13:22;11.43;;;3.40;;
18084;SDS011;9169;44.492;11.372;2023-03-11T01:15:50;9.37;;;3.40;;
18084;SDS011;9169;44.492;11.372;2023-03-11T01:18:21;11.90;;;3.50;;
18084;SDS011;9169;44.492;11.372;2023-03-11T01:20:50;15.03;;;3.77;;
18084;SDS011;9169;44.492;11.372;2023-03-11T01:23:19;8.97;;;3.40;;
18084;SDS011;9169;44.492;11.372;2023-03-11T01:25:47;10.33;;;3.47;;
18084;SDS011;9169;44.492;11.372;2023-03-11T01:28:17;15.47;;;4.00;;
18084;SDS011;9169;44.492;11.372;2023-03-11T01:30:45;12.93;;;4.10;;
18084;SDS011;9169;44.492;11.372;2023-03-11T01:33:14;8.97;;;3.90;;
18084;SDS011;9169;44.492;11.372;2023-03-11T01:35:46;14.73;;;3.40;;
18084;SDS011;9169;44.492;11.372;2023-03-11T01:38:15;13.07;;;3.40;;
18084;SDS011;9169;44.492;11.372;2023-03-11T01:40:45;11.20;;;3.93;;
18084;SDS011;9169;44.492;11.372;2023-03-11T01:43:40;11.00;;;3.63;;
18084;SDS011;9169;44.492;11.372;2023-03-11T01:46:20;10.90;;;3.00;;
18084;SDS011;9169;44.492;11.372;2023-03-11T01:48:51;12.40;;;3.67;;
18084;SDS011;9169;44.492;11.372;2023-03-11T01:51:23;10.03;;;3.70;;
18084;SDS011;9169;44.492;11.372;2023-03-11T01:53:56;11.50;;;3.53;;
18084;SDS011;9169;44.492;11.372;2023-03-11T01:56:28;11.07;;;4.10;;
18084;SDS011;9169;44.492;11.372;2023-03-11T01:58:57;9.50;;;3.20;;
18084;SDS011;9169;44.492;11.372;2023-03-11T02:01:26;8.97;;;3.10;;
18084;SDS011;9169;44.492;11.372;2023-03-11T02:03:56;11.63;;;3.57;;
18084;SDS011;9169;44.492;11.372;2023-03-11T02:06:27;18.53;;;3.63;;
18084;SDS011;9169;44.492;11.372;2023-03-11T02:08:59;10.33;;;2.77;;
18084;SDS011;9169;44.492;11.372;2023-03-11T02:11:29;7.50;;;2.67;;
18084;SDS011;9169;44.492;11.372;2023-03-11T02:13:59;12.10;;;3.17;;
18084;SDS011;9169;44.492;11.372;2023-03-11T02:16:30;9.33;;;3.40;;
18084;SDS011;9169;44.492;11.372;2023-03-11T02:19:03;10.27;;;3.37;;
18084;SDS011;9169;44.492;11.372;2023-03-11T02:21:41;15.30;;;4.10;;
18084;SDS011;9169;44.492;11.372;2023-03-11T02:24:10;14.33;;;3.90;;
18084;SDS011;9169;44.492;11.372;2023-03-11T02:26:53;11.43;;;4.13;;
18084;SDS011;9169;44.492;11.372;2023-03-11T02:29:24;16.60;;;4.50;;
18084;SDS011;9169;44.492;11.372;2023-03-11T02:31:55;17.07;;;4.47;;
18084;SDS011;9169;44.492;11.372;2023-03-11T02:34:26;18.30;;;4.50;;
18084;SDS011;9169;44.492;11.372;2023-03-11T02:36:56;16.90;;;4.07;;
18084;SDS011;9169;44.492;11.372;2023-03-11T02:39:29;14.90;;;4.40;;
18084;SDS011;9169;44.492;11.372;2023-03-11T02:42:00;20.63;;;4.33;;
18084;SDS011;9169;44.492;11.372;2023-03-11T02:44:32;14.20;;;5.27;;
18084;SDS011;9169;44.492;11.372;2023-03-11T02:47:01;19.00;;;5.40;;
18084;SDS011;9169;44.492;11.372;2023-03-11T02:49:30;15.57;;;4.60;;
18084;SDS011;9169;44.492;11.372;2023-03-11T02:51:59;18.30;;;5.00;;
18084;SDS011;9169;44.492;11.372;2023-03-11T02:54:29;20.30;;;4.40;;
18084;SDS011;9169;44.492;11.372;2023-03-11T02:56:57;11.00;;;3.77;;
18084;SDS011;9169;44.492;11.372;2023-03-11T02:59:27;20.87;;;4.73;;
18084;SDS011;9169;44.492;11.372;2023-03-11T03:01:58;17.27;;;4.47;;
18084;SDS011;9169;44.492;11.372;2023-03-11T03:04:27;17.50;;;4.47;;
18084;SDS011;9169;44.492;11.372;2023-03-11T03:06:59;17.97;;;4.27;;
18084;SDS011;9169;44.492;11.372;2023-03-11T03:09:27;17.03;;;4.63;;
18084;SDS011;9169;44.492;11.372;2023-03-11T03:11:56;22.00;;;4.40;;
18084;SDS011;9169;44.492;11.372;2023-03-11T03:14:27;15.33;;;4.80;;
18084;SDS011;9169;44.492;11.372;2023-03-11T03:16:56;17.40;;;4.60;;
18084;SDS011;9169;44.492;11.372;2023-03-11T03:19:25;19.30;;;4.37;;
18084;SDS011;9169;44.492;11.372;2023-03-11T03:21:53;18.10;;;5.50;;
18084;SDS011;9169;44.492;11.372;2023-03-11T03:24:23;12.03;;;4.17;;
18084;SDS011;9169;44.492;11.372;2023-03-11T03:26:51;15.50;;;4.80;;
18084;SDS011;9169;44.492;11.372;2023-03-11T03:29:20;16.07;;;4.57;;
18084;SDS011;9169;44.492;11.372;2023-03-11T03:31:50;15.90;;;4.03;;
18084;SDS011;9169;44.492;11.372;2023-03-11T03:34:19;11.33;;;3.77;;
18084;SDS011;9169;44.492;11.372;2023-03-11T03:36:47;17.57;;;4.47;;
18084;SDS011;9169;44.492;11.372;2023-03-11T03:39:17;18.03;;;4.63;;
18084;SDS011;9169;44.492;11.372;2023-03-11T03:41:48;12.53;;;4.53;;
18084;SDS011;9169;44.492;11.372;2023-03-11T03:44:17;16.90;;;5.43;;
18084;SDS011;9169;44.492;11.372;2023-03-11T03:46:46;12.87;;;4.13;;
18084;SDS011;9169;44.492;11.372;2023-03-11T03:49:17;11.60;;;4.23;;
18084;SDS011;9169;44.492;11.372;2023-03-11T03:51:46;17.63;;;4.07;;
18084;SDS011;9169;44.492;11.372;2023-03-11T03:54:24;13.33;;;3.83;;
18084;SDS011;9169;44.492;11.372;2023-03-11T03:56:53;12.60;;;4.00;;
18084;SDS011;9169;44.492;11.372;2023-03-11T03:59:22;7.20;;;2.63;;
18084;SDS011;9169;44.492;11.372;2023-03-11T04:01:54;10.77;;;3.10;;
18084;SDS011;9169;44.492;11.372;2023-03-11T04:04:25;10.23;;;3.30;;
18084;SDS011;9169;44.492;11.372;2023-03-11T04:06:55;16.47;;;4.00;;
18084;SDS011;9169;44.492;11.372;2023-03-11T04:09:24;8.10;;;3.00;;
18084;SDS011;9169;44.492;11.372;2023-03-11T04:11:53;11.17;;;3.53;;
18084;SDS011;9169;44.492;11.372;2023-03-11T04:14:22;15.47;;;4.17;;
18084;SDS011;9169;44.492;11.372;2023-03-11T04:16:57;11.50;;;3.67;;
18084;SDS011;9169;44.492;11.372;2023-03-11T04:19:28;12.70;;;3.97;;
18084;SDS011;9169;44.492;11.372;2023-03-11T04:21:56;8.70;;;2.90;;
18084;SDS011;9169;44.492;11.372;2023-03-11T04:24:26;10.87;;;3.27;;
18084;SDS011;9169;44.492;11.372;2023-03-11T04:26:55;8.17;;;3.10;;
18084;SDS011;9169;44.492;11.372;2023-03-11T04:29:23;7.30;;;2.70;;
18084;SDS011;9169;44.492;11.372;2023-03-11T04:31:53;8.73;;;3.27;;
18084;SDS011;9169;44.492;11.372;2023-03-11T04:34:21;11.87;;;2.87;;
18084;SDS011;9169;44.492;11.372;2023-03-11T04:36:52;7.93;;;3.13;;
18084;SDS011;9169;44.492;11.372;2023-03-11T04:39:26;7.80;;;2.87;;
18084;SDS011;9169;44.492;11.372;2023-03-11T04:41:55;6.93;;;2.43;;
18084;SDS011;9169;44.492;11.372;2023-03-11T04:44:25;8.87;;;2.77;;
18084;SDS011;9169;44.492;11.372;2023-03-11T04:46:54;8.83;;;3.37;;
18084;SDS011;9169;44.492;11.372;2023-03-11T04:49:23;11.43;;;3.30;;
18084;SDS011;9169;44.492;11.372;2023-03-11T04:51:53;8.70;;;2.90;;
18084;SDS011;9169;44.492;11.372;2023-03-11T04:54:22;9.30;;;3.20;;
18084;SDS011;9169;44.492;11.372;2023-03-11T04:56:51;15.73;;;4.03;;
18084;SDS011;9169;44.492;11.372;2023-03-11T04:59:21;11.47;;;3.70;;
18084;SDS011;9169;44.492;11.372;2023-03-11T05:01:51;12.97;;;3.53;;
18084;SDS011;9169;44.492;11.372;2023-03-11T05:04:19;12.23;;;3.30;;
18084;SDS011;9169;44.492;11.372;2023-03-11T05:06:48;13.37;;;3.67;;
18084;SDS011;9169;44.492;11.372;2023-03-11T05:09:20;9.50;;;3.53;;
18084;SDS011;9169;44.492;11.372;2023-03-11T05:11:48;11.90;;;4.37;;
18084;SDS011;9169;44.492;11.372;2023-03-11T05:14:18;14.60;;;3.60;;
18084;SDS011;9169;44.492;11.372;2023-03-11T05:16:48;16.83;;;5.23;;
18084;SDS011;9169;44.492;11.372;2023-03-11T05:19:17;14.13;;;4.33;;
18084;SDS011;9169;44.492;11.372;2023-03-11T05:22:01;15.87;;;4.63;;
18084;SDS011;9169;44.492;11.372;2023-03-11T05:24:32;18.43;;;5.20;;
18084;SDS011;9169;44.492;11.372;2023-03-11T05:27:01;14.60;;;4.80;;
18084;SDS011;9169;44.492;11.372;2023-03-11T05:29:31;16.93;;;5.20;;
18084;SDS011;9169;44.492;11.372;2023-03-11T05:32:00;17.90;;;5.30;;
18084;SDS011;9169;44.492;11.372;2023-03-11T05:34:28;21.57;;;4.80;;
18084;SDS011;9169;44.492;11.372;2023-03-11T05:36:57;15.63;;;5.27;;
18084;SDS011;9169;44.492;11.372;2023-03-11T05:39:28;14.80;;;4.93;;
18084;SDS011;9169;44.492;11.372;2023-03-11T05:41:58;20.10;;;5.30;;
18084;SDS011;9169;44.492;11.372;2023-03-11T05:44:27;16.13;;;4.63;;
18084;SDS011;9169;44.492;11.372;2023-03-11T05:46:56;15.87;;;4.90;;
18084;SDS011;9169;44.492;11.372;2023-03-11T05:49:26;20.30;;;5.33;;
18084;SDS011;9169;44.492;11.372;2023-03-11T05:51:55;24.87;;;6.00;;
18084;SDS011;9169;44.492;11.372;2023-03-11T05:54:27;20.33;;;5.70;;
18084;SDS011;9169;44.492;11.372;2023-03-11T05:56:55;19.90;;;5.20;;
18084;SDS011;9169;44.492;11.372;2023-03-11T05:59:25;16.77;;;4.90;;
18084;SDS011;9169;44.492;11.372;2023-03-11T06:01:59;18.97;;;5.40;;
18084;SDS011;9169;44.492;11.372;2023-03-11T06:04:29;21.53;;;6.00;;
18084;SDS011;9169;44.492;11.372;2023-03-11T06:06:59;14.20;;;4.80;;
18084;SDS011;9169;44.492;11.372;2023-03-11T06:09:31;19.63;;;4.87;;
18084;SDS011;9169;44.492;11.372;2023-03-11T06:12:04;19.20;;;4.47;;
18084;SDS011;9169;44.492;11.372;2023-03-11T06:14:49;17.83;;;5.23;;
18084;SDS011;9169;44.492;11.372;2023-03-11T06:17:20;15.00;;;4.23;;
18084;SDS011;9169;44.492;11.372;2023-03-11T06:19:49;15.80;;;5.20;;
18084;SDS011;9169;44.492;11.372;2023-03-11T06:22:17;19.83;;;5.20;;
18084;SDS011;9169;44.492;11.372;2023-03-11T06:24:49;19.00;;;5.10;;
18084;SDS011;9169;44.492;11.372;2023-03-11T06:27:18;21.37;;;5.33;;
18084;SDS011;9169;44.492;11.372;2023-03-11T06:29:51;27.17;;;5.30;;
18084;SDS011;9169;44.492;11.372;2023-03-11T06:32:23;18.23;;;5.30;;
18084;SDS011;9169;44.492;11.372;2023-03-11T06:34:52;17.70;;;4.77;;
18084;SDS011;9169;44.492;11.372;2023-03-11T06:37:21;26.80;;;5.90;;
18084;SDS011;9169;44.492;11.372;2023-03-11T06:39:51;18.90;;;5.13;;
18084;SDS011;9169;44.492;11.372;2023-03-11T06:42:22;19.40;;;4.50;;
18084;SDS011;9169;44.492;11.372;2023-03-11T06:44:55;17.77;;;4.50;;
18084;SDS011;9169;44.492;11.372;2023-03-11T06:47:24;25.17;;;5.17;;
18084;SDS011;9169;44.492;11.372;2023-03-11T06:49:54;27.40;;;4.60;;
18084;SDS011;9169;44.492;11.372;2023-03-11T06:52:22;20.13;;;5.07;;
18084;SDS011;9169;44.492;11.372;2023-03-11T06:54:51;17.03;;;5.37;;
18084;SDS011;9169;44.492;11.372;2023-03-11T06:57:19;12.40;;;4.27;;
18084;SDS011;9169;44.492;11.372;2023-03-11T06:59:50;16.67;;;4.33;;
18084;SDS011;9169;44.492;11.372;2023-03-11T07:02:20;13.70;;;4.53;;
18084;SDS011;9169;44.492;11.372;2023-03-11T07:04:49;16.27;;;4.77;;
18084;SDS011;9169;44.492;11.372;2023-03-11T07:07:18;15.13;;;4.10;;
18084;SDS011;9169;44.492;11.372;2023-03-11T07:09:47;12.40;;;4.10;;
18084;SDS011;9169;44.492;11.372;2023-03-11T07:12:16;12.30;;;3.83;;
18084;SDS011;9169;44.492;11.372;2023-03-11T07:14:49;15.67;;;4.33;;
18084;SDS011;9169;44.492;11.372;2023-03-11T07:17:23;20.07;;;4.20;;
18084;SDS011;9169;44.492;11.372;2023-03-11T07:19:52;19.27;;;5.57;;
18084;SDS011;9169;44.492;11.372;2023-03-11T07:22:21;17.33;;;4.67;;
18084;SDS011;9169;44.492;11.372;2023-03-11T07:24:49;15.57;;;4.83;;
18084;SDS011;9169;44.492;11.372;2023-03-11T07:27:18;14.97;;;4.00;;
18084;SDS011;9169;44.492;11.372;2023-03-11T07:29:47;23.03;;;5.17;;
18084;SDS011;9169;44.492;11.372;2023-03-11T07:32:15;15.70;;;4.67;;
18084;SDS011;9169;44.492;11.372;2023-03-11T07:34:45;16.30;;;4.67;;
18084;SDS011;9169;44.492;11.372;2023-03-11T07:37:14;13.43;;;3.90;;
18084;SDS011;9169;44.492;11.372;2023-03-11T07:39:43;22.33;;;4.30;;
18084;SDS011;9169;44.492;11.372;2023-03-11T07:42:12;18.00;;;4.20;;
18084;SDS011;9169;44.492;11.372;2023-03-11T07:44:40;13.73;;;4.70;;
18084;SDS011;9169;44.492;11.372;2023-03-11T07:47:09;17.40;;;4.30;;
18084;SDS011;9169;44.492;11.372;2023-03-11T07:49:37;14.97;;;4.90;;
18084;SDS011;9169;44.492;11.372;2023-03-11T07:52:07;13.60;;;4.23;;
18084;SDS011;9169;44.492;11.372;2023-03-11T07:54:36;16.37;;;4.20;;
18084;SDS011;9169;44.492;11.372;2023-03-11T07:57:04;13.07;;;4.07;;
18084;SDS011;9169;44.492;11.372;2023-03-11T07:59:35;24.73;;;4.00;;
18084;SDS011;9169;44.492;11.372;2023-03-11T08:02:03;12.87;;;4.13;;
18084;SDS011;9169;44.492;11.372;2023-03-11T08:04:32;14.20;;;4.03;;
18084;SDS011;9169;44.492;11.372;2023-03-11T08:07:00;10.20;;;3.80;;
18084;SDS011;9169;44.492;11.372;2023-03-11T08:09:31;13.63;;;4.17;;
18084;SDS011;9169;44.492;11.372;2023-03-11T08:12:01;10.87;;;3.60;;
18084;SDS011;9169;44.492;11.372;2023-03-11T08:14:31;9.17;;;2.97;;
18084;SDS011;9169;44.492;11.372;2023-03-11T08:17:00;15.13;;;5.97;;
18084;SDS011;9169;44.492;11.372;2023-03-11T08:19:29;12.83;;;3.47;;
18084;SDS011;9169;44.492;11.372;2023-03-11T08:22:00;8.57;;;3.17;;
18084;SDS011;9169;44.492;11.372;2023-03-11T08:24:28;11.20;;;3.63;;
18084;SDS011;9169;44.492;11.372;2023-03-11T08:26:58;12.90;;;2.97;;
18084;SDS011;9169;44.492;11.372;2023-03-11T08:29:27;6.40;;;2.50;;
18084;SDS011;9169;44.492;11.372;2023-03-11T08:31:56;5.77;;;2.43;;
18084;SDS011;9169;44.492;11.372;2023-03-11T08:34:24;6.00;;;2.63;;
18084;SDS011;9169;44.492;11.372;2023-03-11T08:36:53;7.93;;;2.63;;
18084;SDS011;9169;44.492;11.372;2023-03-11T08:39:21;7.87;;;3.10;;
18084;SDS011;9169;44.492;11.372;2023-03-11T08:41:50;4.80;;;2.10;;
18084;SDS011;9169;44.492;11.372;2023-03-11T08:44:20;10.00;;;2.67;;
18084;SDS011;9169;44.492;11.372;2023-03-11T08:46:49;7.97;;;2.73;;
18084;SDS011;9169;44.492;11.372;2023-03-11T08:49:17;6.50;;;2.57;;
18084;SDS011;9169;44.492;11.372;2023-03-11T08:51:46;11.07;;;3.70;;
18084;SDS011;9169;44.492;11.372;2023-03-11T08:54:14;10.17;;;2.40;;
18084;SDS011;9169;44.492;11.372;2023-03-11T08:56:43;10.73;;;4.33;;
18084;SDS011;9169;44.492;11.372;2023-03-11T08:59:13;9.90;;;3.20;;
18084;SDS011;9169;44.492;11.372;2023-03-11T09:01:43;5.67;;;2.10;;
18084;SDS011;9169;44.492;11.372;2023-03-11T09:04:12;7.00;;;2.23;;
18084;SDS011;9169;44.492;11.372;2023-03-11T09:06:41;8.77;;;2.90;;
18084;SDS011;9169;44.492;11.372;2023-03-11T09:09:10;6.50;;;2.40;;
18084;SDS011;9169;44.492;11.372;2023-03-11T09:11:39;7.10;;;2.60;;
18084;SDS011;9169;44.492;11.372;2023-03-11T09:14:08;8.43;;;2.67;;
18084;SDS011;9169;44.492;11.372;2023-03-11T09:16:36;6.93;;;2.77;;
18084;SDS011;9169;44.492;11.372;2023-03-11T09:19:06;6.27;;;2.57;;
18084;SDS011;9169;44.492;11.372;2023-03-11T09:21:38;8.97;;;3.90;;
18084;SDS011;9169;44.492;11.372;2023-03-11T09:24:06;7.07;;;2.60;;
18084;SDS011;9169;44.492;11.372;2023-03-11T09:26:35;4.30;;;2.37;;
18084;SDS011;9169;44.492;11.372;2023-03-11T09:29:03;5.77;;;2.20;;
18084;SDS011;9169;44.492;11.372;2023-03-11T09:31:32;6.27;;;2.70;;
18084;SDS011;9169;44.492;11.372;2023-03-11T09:34:01;8.37;;;4.00;;
18084;SDS011;9169;44.492;11.372;2023-03-11T09:36:31;8.80;;;2.80;;
18084;SDS011;9169;44.492;11.372;2023-03-11T09:38:59;5.57;;;2.40;;
18084;SDS011;9169;44.492;11.372;2023-03-11T09:41:30;11.50;;;6.70;;
18084;SDS011;9169;44.492;11.372;2023-03-11T09:44:22;7.37;;;3.07;;
18084;SDS011;9169;44.492;11.372;2023-03-11T09:47:15;4.83;;;2.23;;
18084;SDS011;9169;44.492;11.372;2023-03-11T09:49:59;8.97;;;3.20;;
18084;SDS011;9169;44.492;11.372;2023-03-11T09:52:43;5.20;;;2.63;;
18084;SDS011;9169;44.492;11.372;2023-03-11T09:55:32;11.13;;;3.23;;
18084;SDS011;9169;44.492;11.372;2023-03-11T09:58:07;7.00;;;2.47;;
18084;SDS011;9169;44.492;11.372;2023-03-11T10:00:39;7.00;;;2.30;;
18084;SDS011;9169;44.492;11.372;2023-03-11T10:03:11;6.80;;;4.57;;
18084;SDS011;9169;44.492;11.372;2023-03-11T10:05:52;5.87;;;2.10;;
18084;SDS011;9169;44.492;11.372;2023-03-11T10:08:29;11.40;;;3.50;;
18084;SDS011;9169;44.492;11.372;2023-03-11T10:11:16;4.63;;;2.47;;
18084;SDS011;9169;44.492;11.372;2023-03-11T10:13:58;4.47;;;1.60;;
18084;SDS011;9169;44.492;11.372;2023-03-11T10:16:38;7.07;;;3.03;;
18084;SDS011;9169;44.492;11.372;2023-03-11T10:19:14;4.90;;;3.33;;
18084;SDS011;9169;44.492;11.372;2023-03-11T10:21:54;6.70;;;3.70;;
18084;SDS011;9169;44.492;11.372;2023-03-11T10:24:37;6.63;;;2.70;;
18084;SDS011;9169;44.492;11.372;2023-03-11T10:27:16;3.90;;;1.90;;
18084;SDS011;9169;44.492;11.372;2023-03-11T10:29:51;4.03;;;2.07;;
18084;SDS011;9169;44.492;11.372;2023-03-11T10:32:25;5.70;;;2.37;;
18084;SDS011;9169;44.492;11.372;2023-03-11T10:35:03;4.27;;;1.87;;
18084;SDS011;9169;44.492;11.372;2023-03-11T10:37:42;4.00;;;2.20;;
18084;SDS011;9169;44.492;11.372;2023-03-11T10:40:22;4.50;;;2.90;;
18084;SDS011;9169;44.492;11.372;2023-03-11T10:42:56;6.27;;;3.70;;
18084;SDS011;9169;44.492;11.372;2023-03-11T10:45:27;7.27;;;2.47;;
18084;SDS011;9169;44.492;11.372;2023-03-11T10:48:07;6.10;;;2.70;;
18084;SDS011;9169;44.492;11.372;2023-03-11T10:50:42;8.43;;;3.30;;
18084;SDS011;9169;44.492;11.372;2023-03-11T10:53:16;5.80;;;2.90;;
18084;SDS011;9169;44.492;11.372;2023-03-11T10:55:48;7.63;;;3.27;;
18084;SDS011;9169;44.492;11.372;2023-03-11T10:58:19;8.00;;;3.77;;
18084;SDS011;9169;44.492;11.372;2023-03-11T11:00:59;7.57;;;4.60;;
18084;SDS011;9169;44.492;11.372;2023-03-11T11:03:29;9.00;;;4.80;;
18084;SDS011;9169;44.492;11.372;2023-03-11T11:06:00;8.43;;;2.97;;
18084;SDS011;9169;44.492;11.372;2023-03-11T11:08:30;6.90;;;3.43;;
18084;SDS011;9169;44.492;11.372;2023-03-11T11:11:01;8.03;;;4.40;;
18084;SDS011;9169;44.492;11.372;2023-03-11T11:13:31;6.70;;;3.40;;
18084;SDS011;9169;44.492;11.372;2023-03-11T11:16:03;5.80;;;3.00;;
18084;SDS011;9169;44.492;11.372;2023-03-11T11:18:45;3.93;;;1.90;;
18084;SDS011;9169;44.492;11.372;2023-03-11T11:21:16;4.70;;;2.00;;
18084;SDS011;9169;44.492;11.372;2023-03-11T11:24:01;5.13;;;1.97;;
18084;SDS011;9169;44.492;11.372;2023-03-11T11:26:35;4.90;;;1.67;;
18084;SDS011;9169;44.492;11.372;2023-03-11T11:29:04;3.60;;;2.20;;
18084;SDS011;9169;44.492;11.372;2023-03-11T11:31:40;4.87;;;1.90;;
18084;SDS011;9169;44.492;11.372;2023-03-11T11:34:23;6.80;;;1.60;;
18084;SDS011;9169;44.492;11.372;2023-03-11T11:36:56;3.97;;;1.60;;
18084;SDS011;9169;44.492;11.372;2023-03-11T11:39:27;4.60;;;2.13;;
18084;SDS011;9169;44.492;11.372;2023-03-11T11:42:01;4.10;;;1.70;;
18084;SDS011;9169;44.492;11.372;2023-03-11T11:44:31;3.70;;;1.40;;
18084;SDS011;9169;44.492;11.372;2023-03-11T11:47:03;3.63;;;1.60;;
18084;SDS011;9169;44.492;11.372;2023-03-11T11:49:39;4.30;;;1.60;;
18084;SDS011;9169;44.492;11.372;2023-03-11T11:52:16;8.60;;;2.10;;
18084;SDS011;9169;44.492;11.372;2023-03-11T11:54:49;4.63;;;1.60;;
18084;SDS011;9169;44.492;11.372;2023-03-11T11:57:22;7.70;;;1.83;;
18084;SDS011;9169;44.492;11.372;2023-03-11T11:59:52;3.73;;;1.50;;
18084;SDS011;9169;44.492;11.372;2023-03-11T12:02:27;4.73;;;1.60;;
18084;SDS011;9169;44.492;11.372;2023-03-11T12:05:06;4.27;;;1.60;;
18084;SDS011;9169;44.492;11.372;2023-03-11T12:07:48;6.60;;;3.00;;
18084;SDS011;9169;44.492;11.372;2023-03-11T12:10:27;3.60;;;1.60;;
18084;SDS011;9169;44.492;11.372;2023-03-11T12:13:20;4.00;;;2.70;;
18084;SDS011;9169;44.492;11.372;2023-03-11T12:15:59;4.13;;;1.73;;
18084;SDS011;9169;44.492;11.372;2023-03-11T12:18:35;12.70;;;3.27;;
18084;SDS011;9169;44.492;11.372;2023-03-11T12:21:10;4.37;;;1.63;;
18084;SDS011;9169;44.492;11.372;2023-03-11T12:23:56;3.80;;;1.80;;
18084;SDS011;9169;44.492;11.372;2023-03-11T12:26:35;5.07;;;1.90;;
18084;SDS011;9169;44.492;11.372;2023-03-11T12:29:10;3.70;;;1.80;;
18084;SDS011;9169;44.492;11.372;2023-03-11T12:31:45;3.90;;;1.23;;
18084;SDS011;9169;44.492;11.372;2023-03-11T12:34:16;8.30;;;1.43;;
18084;SDS011;9169;44.492;11.372;2023-03-11T12:36:47;4.70;;;1.70;;
18084;SDS011;9169;44.492;11.372;2023-03-11T12:39:19;4.37;;;2.57;;
18084;SDS011;9169;44.492;11.372;2023-03-11T12:44:46;3.63;;;1.40;;
18084;SDS011;9169;44.492;11.372;2023-03-11T12:47:23;2.47;;;1.20;;
18084;SDS011;9169;44.492;11.372;2023-03-11T12:49:55;4.50;;;2.93;;
18084;SDS011;9169;44.492;11.372;2023-03-11T12:52:50;7.90;;;1.97;;
18084;SDS011;9169;44.492;11.372;2023-03-11T12:55:27;3.67;;;2.10;;
18084;SDS011;9169;44.492;11.372;2023-03-11T13:04:19;3.70;;;1.70;;
18084;SDS011;9169;44.492;11.372;2023-03-11T13:10:11;2.60;;;1.40;;
18084;SDS011;9169;44.492;11.372;2023-03-11T13:12:43;5.00;;;3.70;;
18084;SDS011;9169;44.492;11.372;2023-03-11T13:18:13;4.47;;;1.70;;
18084;SDS011;9169;44.492;11.372;2023-03-11T13:20:46;4.27;;;3.00;;
18084;SDS011;9169;44.492;11.372;2023-03-11T13:23:25;3.03;;;2.03;;
18084;SDS011;9169;44.492;11.372;2023-03-11T13:32:05;7.13;;;2.43;;
18084;SDS011;9169;44.492;11.372;2023-03-11T13:35:00;6.73;;;5.93;;
18084;SDS011;9169;44.492;11.372;2023-03-11T13:37:41;6.30;;;3.65;;
18084;SDS011;9169;44.492;11.372;2023-03-11T13:40:21;4.50;;;2.10;;
18084;SDS011;9169;44.492;11.372;2023-03-11T13:42:59;5.20;;;4.57;;
18084;SDS011;9169;44.492;11.372;2023-03-11T13:45:30;2.72;;;1.20;;
18084;SDS011;9169;44.492;11.372;2023-03-11T13:48:02;3.30;;;1.30;;
18084;SDS011;9169;44.492;11.372;2023-03-11T13:50:36;2.50;;;1.42;;
18084;SDS011;9169;44.492;11.372;2023-03-11T13:53:14;2.17;;;1.05;;
18084;SDS011;9169;44.492;11.372;2023-03-11T13:55:47;3.85;;;1.08;;
18084;SDS011;9169;44.492;11.372;2023-03-11T13:58:18;2.60;;;1.40;;
18084;SDS011;9169;44.492;11.372;2023-03-11T14:00:50;3.05;;;1.88;;
18084;SDS011;9169;44.492;11.372;2023-03-11T14:03:20;3.22;;;2.20;;
18084;SDS011;9169;44.492;11.372;2023-03-11T14:05:56;2.65;;;1.17;;
18084;SDS011;9169;44.492;11.372;2023-03-11T14:08:28;2.60;;;1.52;;
18084;SDS011;9169;44.492;11.372;2023-03-11T14:10:59;2.20;;;1.10;;
18084;SDS011;9169;44.492;11.372;2023-03-11T14:13:29;3.28;;;2.13;;
18084;SDS011;9169;44.492;11.372;2023-03-11T14:16:02;2.17;;;1.02;;
18084;SDS011;9169;44.492;11.372;2023-03-11T14:18:35;2.55;;;1.70;;
18084;SDS011;9169;44.492;11.372;2023-03-11T14:21:09;3.75;;;2.88;;
18084;SDS011;9169;44.492;11.372;2023-03-11T14:23:41;2.33;;;1.10;;
18084;SDS011;9169;44.492;11.372;2023-03-11T14:26:12;2.17;;;1.00;;
18084;SDS011;9169;44.492;11.372;2023-03-11T14:28:43;3.10;;;1.40;;
18084;SDS011;9169;44.492;11.372;2023-03-11T14:31:22;2.38;;;1.10;;
18084;SDS011;9169;44.492;11.372;2023-03-11T14:33:56;2.30;;;0.95;;
18084;SDS011;9169;44.492;11.372;2023-03-11T14:36:38;3.03;;;1.20;;
18084;SDS011;9169;44.492;11.372;2023-03-11T14:39:21;3.00;;;1.27;;
18084;SDS011;9169;44.492;11.372;2023-03-11T14:41:51;2.20;;;1.00;;
18084;SDS011;9169;44.492;11.372;2023-03-11T14:44:22;3.15;;;1.35;;
18084;SDS011;9169;44.492;11.372;2023-03-11T14:46:54;3.10;;;1.25;;
18084;SDS011;9169;44.492;11.372;2023-03-11T14:49:30;2.63;;;1.20;;
18084;SDS011;9169;44.492;11.372;2023-03-11T14:52:03;2.10;;;1.10;;
18084;SDS011;9169;44.492;11.372;2023-03-11T14:54:37;2.55;;;1.20;;
18084;SDS011;9169;44.492;11.372;2023-03-11T14:57:09;2.20;;;1.30;;
18084;SDS011;9169;44.492;11.372;2023-03-11T14:59:45;3.05;;;1.00;;
18084;SDS011;9169;44.492;11.372;2023-03-11T15:02:26;3.47;;;1.10;;
18084;SDS011;9169;44.492;11.372;2023-03-11T15:05:04;2.70;;;1.60;;
18084;SDS011;9169;44.492;11.372;2023-03-11T15:07:38;2.13;;;1.30;;
18084;SDS011;9169;44.492;11.372;2023-03-11T15:10:07;2.60;;;1.83;;
18084;SDS011;9169;44.492;11.372;2023-03-11T15:12:38;2.65;;;1.77;;
18084;SDS011;9169;44.492;11.372;2023-03-11T15:15:20;3.45;;;2.17;;
18084;SDS011;9169;44.492;11.372;2023-03-11T15:17:53;2.75;;;1.20;;
18084;SDS011;9169;44.492;11.372;2023-03-11T15:20:23;10.90;;;9.75;;
18084;SDS011;9169;44.492;11.372;2023-03-11T15:22:56;3.05;;;1.70;;
18084;SDS011;9169;44.492;11.372;2023-03-11T15:25:28;7.00;;;5.95;;
18084;SDS011;9169;44.492;11.372;2023-03-11T15:27:59;3.92;;;1.77;;
18084;SDS011;9169;44.492;11.372;2023-03-11T15:30:41;6.43;;;1.80;;